Time;durP1;ratioP1;P1;durP2;ratioP2;P2;SDS_P1;SDS_P2;PMS_P1;PMS_P2;Temp;Humidity;BMP_temperature;BMP_pressure;BME280_temperature;BME280_humidity;BME280_pressure;Samples;Min_cycle;Max_cycle;Signal;HPM_P1;HPM_P2
2021/08/12 00:00:53;;;;;;;8.95;6.03;;;18.30;76.70;;;;;;5136833;27;20026;-73
2021/08/12 00:03:19;;;;;;;13.15;6.13;;;18.20;76.70;;;;;;5155258;27;20043;-73
2021/08/12 00:05:44;;;;;;;9.80;6.22;;;18.10;77.20;;;;;;5155293;27;20316;-73
2021/08/12 00:08:10;;;;;;;10.77;5.90;;;17.90;77.70;;;;;;5155141;27;20097;-73
2021/08/12 00:10:35;;;;;;;8.13;5.75;;;17.90;77.80;;;;;;5155011;27;20130;-73
2021/08/12 00:13:01;;;;;;;8.95;5.60;;;17.90;78.00;;;;;;5155018;27;20026;-73
2021/08/12 00:15:26;;;;;;;9.32;5.82;;;17.90;78.10;;;;;;5155066;27;20447;-73
2021/08/12 00:17:52;;;;;;;9.55;4.78;;;17.90;77.80;;;;;;5154894;27;20023;-73
2021/08/12 00:20:18;;;;;;;6.53;5.38;;;18.00;77.60;;;;;;5155149;27;20029;-73
2021/08/12 00:22:44;;;;;;;7.43;4.65;;;18.10;77.30;;;;;;5155045;27;20102;-73
2021/08/12 00:25:10;;;;;;;8.65;6.32;;;18.10;77.80;;;;;;5154884;27;20033;-73
2021/08/12 00:27:35;;;;;;;10.90;6.22;;;18.20;78.60;;;;;;5154877;27;20558;-73
2021/08/12 00:30:02;;;;;;;9.20;5.90;;;18.30;78.60;;;;;;5154749;27;20105;-74
2021/08/12 00:32:27;;;;;;;7.60;5.80;;;18.40;77.80;;;;;;5154793;27;20019;-74
2021/08/12 00:34:53;;;;;;;9.65;5.30;;;18.50;77.30;;;;;;5154712;27;20093;-73
2021/08/12 00:37:19;;;;;;;10.75;5.60;;;18.60;76.40;;;;;;5155019;27;20370;-74
2021/08/12 00:39:45;;;;;;;9.13;5.32;;;18.60;75.90;;;;;;5154680;27;20090;-74
2021/08/12 00:42:11;;;;;;;7.43;5.32;;;18.60;75.00;;;;;;5154625;27;20027;-74
2021/08/12 00:44:37;;;;;;;7.65;5.72;;;18.60;74.50;;;;;;5154682;27;20026;-73
2021/08/12 00:47:04;;;;;;;8.38;5.57;;;18.60;75.10;;;;;;5154483;27;20023;-74
2021/08/12 00:49:29;;;;;;;9.57;5.28;;;18.50;75.30;;;;;;5154504;27;20030;-73
2021/08/12 00:51:55;;;;;;;10.02;6.38;;;18.50;75.20;;;;;;5154372;27;20395;-73
2021/08/12 00:54:21;;;;;;;9.82;5.55;;;18.50;75.40;;;;;;5154605;27;20033;-73
2021/08/12 00:56:48;;;;;;;9.43;5.68;;;18.40;75.50;;;;;;5154465;27;20023;-73
2021/08/12 00:59:13;;;;;;;8.90;5.15;;;18.50;75.60;;;;;;5154500;27;20022;-73
2021/08/12 01:01:39;;;;;;;9.95;5.47;;;18.60;75.00;;;;;;5154509;27;20027;-73
2021/08/12 01:04:05;;;;;;;9.30;5.20;;;18.70;76.10;;;;;;5154480;27;20129;-74
2021/08/12 01:06:55;;;;;;;8.00;5.60;;;18.60;74.50;;;;;;5154507;27;20231;-73
2021/08/12 01:09:37;;;;;;;11.88;5.63;;;18.60;74.30;;;;;;5154360;27;20035;-74
2021/08/12 01:12:08;;;;;;;7.93;5.40;;;18.60;74.60;;;;;;5154419;27;20452;-73
2021/08/12 01:14:55;;;;;;;7.70;5.32;;;18.60;74.50;;;;;;5154469;27;20422;-73
2021/08/12 01:17:25;;;;;;;7.35;4.93;;;18.70;74.50;;;;;;5135812;27;20019;-74
2021/08/12 01:20:06;;;;;;;6.85;5.20;;;18.60;74.00;;;;;;5154283;27;20054;-74
2021/08/12 01:22:39;;;;;;;7.13;4.90;;;18.60;73.80;;;;;;5154377;27;20027;-74
2021/08/12 01:25:20;;;;;;;8.60;4.70;;;18.50;74.40;;;;;;5154213;27;20023;-74
2021/08/12 01:27:49;;;;;;;7.30;5.03;;;18.60;74.30;;;;;;5135595;27;20114;-74
2021/08/12 01:30:17;;;;;;;7.57;5.28;;;18.60;74.20;;;;;;5154040;27;20031;-74
2021/08/12 01:32:58;;;;;;;6.82;4.88;;;18.60;74.10;;;;;;5154256;27;20463;-74
2021/08/12 01:35:24;;;;;;;6.75;5.10;;;18.60;74.20;;;;;;5154210;27;20091;-74
2021/08/12 01:38:07;;;;;;;8.80;5.50;;;18.60;74.10;;;;;;5135563;27;20015;-74
2021/08/12 01:40:35;;;;;;;10.35;5.28;;;18.70;73.80;;;;;;5154115;27;20401;-74
2021/08/12 01:43:09;;;;;;;7.90;4.95;;;18.70;73.80;;;;;;5154394;27;20030;-73
2021/08/12 01:45:35;;;;;;;8.02;5.07;;;18.60;73.60;;;;;;5157980;27;20378;-73
2021/08/12 01:48:03;;;;;;;7.35;5.20;;;18.60;73.80;;;;;;5157730;27;20026;-73
2021/08/12 01:50:29;;;;;;;8.02;5.25;;;18.60;74.10;;;;;;5157555;27;20439;-74
2021/08/12 01:52:55;;;;;;;9.45;5.85;;;18.70;73.90;;;;;;5157625;27;20043;-74
2021/08/12 01:55:27;;;;;;;9.18;5.78;;;18.60;73.80;;;;;;5157677;27;20038;-74
2021/08/12 01:57:54;;;;;;;8.23;5.13;;;18.50;74.20;;;;;;5157643;27;20026;-74
2021/08/12 02:00:20;;;;;;;10.68;5.82;;;18.50;74.50;;;;;;5157741;27;20459;-73
2021/08/12 02:02:46;;;;;;;11.88;6.00;;;18.40;74.50;;;;;;5157649;27;20030;-74
2021/08/12 02:05:13;;;;;;;10.57;5.60;;;18.40;74.50;;;;;;5157516;27;20023;-74
2021/08/12 02:07:44;;;;;;;12.20;5.55;;;18.30;74.80;;;;;;5157464;27;20106;-74
2021/08/12 02:10:14;;;;;;;10.65;5.78;;;18.30;75.00;;;;;;5157337;27;20083;-74
2021/08/12 02:12:39;;;;;;;10.55;5.30;;;18.30;75.20;;;;;;5157408;27;20022;-74
2021/08/12 02:15:06;;;;;;;9.75;5.32;;;18.20;75.40;;;;;;5157237;27;20034;-74
2021/08/12 02:17:32;;;;;;;7.68;5.10;;;18.20;75.40;;;;;;5157272;27;20031;-74
2021/08/12 02:20:01;;;;;;;9.50;5.47;;;18.20;75.40;;;;;;5157225;27;20011;-74
2021/08/12 02:22:33;;;;;;;7.85;5.47;;;18.20;75.50;;;;;;5157280;27;20497;-75
2021/08/12 02:25:06;;;;;;;7.30;5.05;;;18.20;75.30;;;;;;5157046;27;20027;-74
2021/08/12 02:27:43;;;;;;;9.27;5.53;;;18.20;75.20;;;;;;5157084;27;20034;-74
2021/08/12 02:30:10;;;;;;;13.43;6.30;;;18.10;75.50;;;;;;5156985;27;20069;-74
2021/08/12 02:32:37;;;;;;;7.53;5.57;;;18.00;76.10;;;;;;5156970;27;20026;-74
2021/08/12 02:35:05;;;;;;;9.07;5.63;;;17.80;76.90;;;;;;5156897;27;20022;-74
2021/08/12 02:37:33;;;;;;;7.07;5.50;;;17.80;77.10;;;;;;5156821;27;20019;-74
2021/08/12 02:40:00;;;;;;;7.63;5.22;;;17.70;77.60;;;;;;5156923;27;20534;-74
2021/08/12 02:42:25;;;;;;;8.73;5.90;;;17.70;77.40;;;;;;5156718;27;20379;-74
2021/08/12 02:44:52;;;;;;;12.40;6.00;;;17.70;77.50;;;;;;5156657;27;20027;-75
2021/08/12 02:47:19;;;;;;;9.13;5.65;;;17.70;77.80;;;;;;5156814;27;20022;-74
2021/08/12 02:49:48;;;;;;;11.25;5.97;;;17.80;77.80;;;;;;5156605;27;20038;-74
2021/08/12 02:52:15;;;;;;;9.18;6.00;;;17.80;77.70;;;;;;5156424;27;20138;-74
2021/08/12 02:54:44;;;;;;;9.02;5.55;;;17.80;77.30;;;;;;5155587;27;20019;-75
2021/08/12 02:57:11;;;;;;;8.45;5.95;;;17.70;77.70;;;;;;5156187;27;20030;-75
2021/08/12 02:59:37;;;;;;;7.63;5.22;;;17.70;77.80;;;;;;5156357;27;20057;-74
2021/08/12 03:02:03;;;;;;;12.65;5.93;;;17.70;77.80;;;;;;5156312;27;20050;-74
2021/08/12 03:04:29;;;;;;;8.48;5.90;;;17.60;77.80;;;;;;5156300;27;20471;-74
2021/08/12 03:06:57;;;;;;;10.02;5.82;;;17.60;78.10;;;;;;5156297;27;20025;-74
2021/08/12 03:09:24;;;;;;;12.07;5.35;;;17.70;78.20;;;;;;5156117;27;20026;-74
2021/08/12 03:11:53;;;;;;;9.77;5.13;;;17.70;78.10;;;;;;5156244;27;20027;-74
2021/08/12 03:14:19;;;;;;;10.85;5.80;;;17.70;78.00;;;;;;5156180;27;20054;-74
2021/08/12 03:16:45;;;;;;;9.77;5.40;;;17.60;78.10;;;;;;5155907;27;20075;-73
2021/08/12 03:19:11;;;;;;;7.50;5.65;;;17.60;78.20;;;;;;5155969;27;20023;-73
2021/08/12 03:21:36;;;;;;;8.50;5.90;;;17.60;78.50;;;;;;5155955;27;20023;-73
2021/08/12 03:24:04;;;;;;;8.77;5.10;;;17.50;78.70;;;;;;5155948;27;20498;-73
2021/08/12 03:26:30;;;;;;;8.95;5.40;;;17.60;78.90;;;;;;5155990;27;20026;-72
2021/08/12 03:28:56;;;;;;;13.05;5.90;;;17.60;78.50;;;;;;5155962;27;20031;-73
2021/08/12 03:31:22;;;;;;;9.82;6.00;;;17.40;79.10;;;;;;5156044;27;20063;-73
2021/08/12 03:33:47;;;;;;;9.73;5.20;;;17.30;80.00;;;;;;5155762;27;20022;-73
2021/08/12 03:36:13;;;;;;;12.02;6.90;;;17.30;80.00;;;;;;5137166;27;20030;-73
2021/08/12 03:38:38;;;;;;;9.85;5.93;;;17.20;80.10;;;;;;5155795;27;20015;-74
2021/08/12 03:41:05;;;;;;;10.35;5.40;;;17.10;80.50;;;;;;5155634;27;20018;-73
2021/08/12 03:43:30;;;;;;;9.80;5.10;;;17.10;80.80;;;;;;5155643;27;20022;-74
2021/08/12 03:45:56;;;;;;;8.10;5.85;;;17.00;81.00;;;;;;5155591;27;20141;-73
2021/08/12 03:48:22;;;;;;;8.63;6.28;;;17.00;81.40;;;;;;5155375;27;20023;-73
2021/08/12 03:50:47;;;;;;;10.40;5.90;;;17.00;81.60;;;;;;5155230;27;20087;-73
2021/08/12 03:53:13;;;;;;;8.93;6.00;;;16.90;81.80;;;;;;5155376;27;20031;-73
2021/08/12 03:55:38;;;;;;;8.65;5.78;;;17.00;81.90;;;;;;5155365;27;20023;-73
2021/08/12 03:58:04;;;;;;;6.82;5.32;;;17.00;81.70;;;;;;5155246;27;20026;-73
2021/08/12 04:00:29;;;;;;;6.90;5.07;;;17.10;81.30;;;;;;5155183;27;20064;-73
2021/08/12 04:02:55;;;;;;;9.02;4.45;;;17.10;81.20;;;;;;5155188;27;20019;-73
2021/08/12 04:05:20;;;;;;;9.75;5.25;;;17.20;81.00;;;;;;5155218;27;20026;-73
2021/08/12 04:07:46;;;;;;;7.63;5.18;;;17.30;80.80;;;;;;5154699;27;20034;-73
2021/08/12 04:10:12;;;;;;;7.25;4.90;;;17.30;80.30;;;;;;5136373;27;20471;-73
2021/08/12 04:12:38;;;;;;;12.05;5.68;;;17.40;80.00;;;;;;5155010;27;20023;-73
2021/08/12 04:15:04;;;;;;;9.10;5.78;;;17.30;80.00;;;;;;5155011;27;20098;-73
2021/08/12 04:17:29;;;;;;;11.30;5.68;;;17.20;80.20;;;;;;5155012;27;20138;-73
2021/08/12 04:19:55;;;;;;;9.75;5.88;;;17.00;80.60;;;;;;5154833;27;20467;-73
2021/08/12 04:22:20;;;;;;;8.75;5.60;;;16.90;81.50;;;;;;5154869;27;20384;-73
2021/08/12 04:24:46;;;;;;;12.65;5.53;;;16.90;81.70;;;;;;5155019;27;20069;-72
2021/08/12 04:27:14;;;;;;;9.52;5.70;;;16.80;81.80;;;;;;5136231;27;20083;-73
2021/08/12 04:29:40;;;;;;;8.13;6.20;;;16.80;81.90;;;;;;5154778;27;20374;-72
2021/08/12 04:32:06;;;;;;;6.72;4.97;;;16.90;81.90;;;;;;5154747;27;20027;-72
2021/08/12 04:34:31;;;;;;;7.25;5.57;;;16.90;81.90;;;;;;5154745;27;20022;-72
2021/08/12 04:36:57;;;;;;;9.50;5.50;;;17.00;81.80;;;;;;5154543;27;20054;-72
2021/08/12 04:39:22;;;;;;;9.18;5.63;;;17.00;81.40;;;;;;5154674;27;20121;-72
2021/08/12 04:41:48;;;;;;;5.90;5.25;;;17.00;81.50;;;;;;5154576;27;20027;-72
2021/08/12 04:44:14;;;;;;;12.80;5.38;;;17.10;81.10;;;;;;5154599;27;20023;-72
2021/08/12 04:46:39;;;;;;;7.50;4.97;;;17.20;80.90;;;;;;5154631;27;20071;-72
2021/08/12 04:49:06;;;;;;;8.10;5.60;;;17.30;80.70;;;;;;5154459;27;20382;-72
2021/08/12 04:51:32;;;;;;;9.43;5.88;;;17.30;80.30;;;;;;5154324;27;20509;-72
2021/08/12 04:53:58;;;;;;;10.73;6.35;;;17.30;79.90;;;;;;5154377;27;20019;-73
2021/08/12 04:56:23;;;;;;;10.25;5.85;;;17.30;80.00;;;;;;5154390;27;20030;-72
2021/08/12 04:58:49;;;;;;;6.50;4.80;;;17.30;80.00;;;;;;5154458;27;20095;-72
2021/08/12 05:01:19;;;;;;;7.82;4.97;;;17.30;80.00;;;;;;5154485;27;20026;-72
2021/08/12 05:03:45;;;;;;;7.47;5.22;;;17.40;80.00;;;;;;5154485;27;20026;-72
2021/08/12 05:06:14;;;;;;;7.32;4.68;;;17.50;80.00;;;;;;5154335;27;20027;-72
2021/08/12 05:08:40;;;;;;;13.52;5.68;;;17.50;79.80;;;;;;5154352;27;20026;-72
2021/08/12 05:11:09;;;;;;;7.93;5.20;;;17.60;79.60;;;;;;5154329;27;20042;-73
2021/08/12 05:13:34;;;;;;;11.25;6.10;;;17.60;79.60;;;;;;5154281;27;20028;-73
2021/08/12 05:16:00;;;;;;;9.25;5.30;;;17.60;79.60;;;;;;5154367;27;20027;-73
2021/08/12 05:18:25;;;;;;;11.02;5.68;;;17.70;79.60;;;;;;5136622;27;20023;-73
2021/08/12 05:20:51;;;;;;;7.10;5.07;;;17.70;79.60;;;;;;5158347;27;20122;-73
2021/08/12 05:23:17;;;;;;;10.98;5.60;;;17.90;79.20;;;;;;5158129;27;20027;-73
2021/08/12 05:25:44;;;;;;;6.70;5.28;;;18.10;78.60;;;;;;5158259;27;20023;-73
2021/08/12 05:28:13;;;;;;;6.03;4.45;;;18.20;77.80;;;;;;5158189;27;20086;-74
2021/08/12 05:30:39;;;;;;;6.70;5.00;;;18.40;78.20;;;;;;5158002;27;20064;-73
2021/08/12 05:33:05;;;;;;;5.88;4.72;;;18.40;76.90;;;;;;5158004;27;20023;-73
2021/08/12 05:35:31;;;;;;;11.05;6.00;;;18.40;76.60;;;;;;5157933;27;20102;-74
2021/08/12 05:37:57;;;;;;;8.35;5.78;;;18.40;77.00;;;;;;5157775;27;20023;-73
2021/08/12 05:40:22;;;;;;;7.97;5.88;;;18.30;77.30;;;;;;5157572;27;20018;-74
2021/08/12 05:42:48;;;;;;;9.88;5.90;;;18.30;77.50;;;;;;5157949;27;20469;-73
2021/08/12 05:45:14;;;;;;;12.93;6.05;;;18.30;77.60;;;;;;5157873;27;21048;-74
2021/08/12 05:47:39;;;;;;;12.63;6.13;;;18.10;78.40;;;;;;5157668;27;20022;-73
2021/08/12 05:50:06;;;;;;;11.90;6.07;;;18.10;78.60;;;;;;5157101;27;20045;-73
2021/08/12 05:52:31;;;;;;;11.38;6.07;;;18.20;78.30;;;;;;5156265;27;20532;-73
2021/08/12 05:54:57;;;;;;;10.00;6.57;;;18.30;78.30;;;;;;5156770;27;20098;-73
2021/08/12 05:57:22;;;;;;;10.57;5.53;;;18.30;78.30;;;;;;5157441;27;20030;-73
2021/08/12 05:59:48;;;;;;;8.35;5.93;;;18.30;78.40;;;;;;5138662;27;20106;-74
2021/08/12 06:02:13;;;;;;;8.50;5.90;;;18.40;78.40;;;;;;5157469;27;20034;-74
2021/08/12 06:04:39;;;;;;;7.97;5.75;;;18.50;78.40;;;;;;5157377;27;20055;-73
2021/08/12 06:07:05;;;;;;;12.02;6.30;;;18.60;78.20;;;;;;5157289;27;20082;-74
2021/08/12 06:09:30;;;;;;;15.98;6.28;;;18.70;78.10;;;;;;5157305;27;20062;-74
2021/08/12 06:11:56;;;;;;;11.05;6.28;;;18.70;78.50;;;;;;5157274;27;20042;-74
2021/08/12 06:14:21;;;;;;;10.23;6.03;;;18.70;78.50;;;;;;5156881;27;20031;-75
2021/08/12 06:16:47;;;;;;;11.30;6.00;;;18.70;78.40;;;;;;5156857;27;20019;-75
2021/08/12 06:19:12;;;;;;;8.85;5.65;;;18.90;78.10;;;;;;5156668;27;20026;-74
2021/08/12 06:21:38;;;;;;;9.63;6.03;;;19.00;77.40;;;;;;5157115;27;20033;-74
2021/08/12 06:24:04;;;;;;;9.82;5.68;;;19.20;77.00;;;;;;5156967;27;20042;-73
2021/08/12 06:26:30;;;;;;;13.15;6.45;;;19.30;76.70;;;;;;5156948;27;20489;-74
2021/08/12 06:28:55;;;;;;;9.27;5.97;;;19.40;76.60;;;;;;5156532;27;20053;-75
2021/08/12 06:31:21;;;;;;;11.18;6.25;;;19.50;76.60;;;;;;5156792;27;20478;-74
2021/08/12 06:33:47;;;;;;;11.18;5.15;;;19.60;76.10;;;;;;5157022;27;20114;-73
2021/08/12 06:36:12;;;;;;;7.72;5.43;;;19.70;75.90;;;;;;5156670;27;20042;-73
2021/08/12 06:38:38;;;;;;;7.97;5.75;;;19.80;75.70;;;;;;5156557;27;20023;-74
2021/08/12 06:41:04;;;;;;;8.50;5.95;;;20.00;75.40;;;;;;5156534;27;20019;-73
2021/08/12 06:43:29;;;;;;;14.20;6.00;;;20.10;75.10;;;;;;5156639;27;20099;-73
2021/08/12 06:45:55;;;;;;;7.50;5.20;;;20.20;74.60;;;;;;5156457;27;20029;-74
2021/08/12 06:48:21;;;;;;;7.28;4.95;;;20.40;74.40;;;;;;5156706;27;20378;-73
2021/08/12 06:50:47;;;;;;;7.32;5.00;;;20.50;74.20;;;;;;5137762;27;20041;-72
2021/08/12 06:53:12;;;;;;;14.13;6.20;;;20.70;73.60;;;;;;5137842;27;20038;-73
2021/08/12 06:55:38;;;;;;;10.05;5.78;;;20.80;73.30;;;;;;5156588;27;20023;-74
2021/08/12 06:58:04;;;;;;;8.45;4.95;;;20.90;73.10;;;;;;5156345;27;20035;-73
2021/08/12 07:00:30;;;;;;;7.93;5.50;;;21.10;72.90;;;;;;5156314;27;20058;-73
2021/08/12 07:02:56;;;;;;;10.60;5.47;;;21.20;72.40;;;;;;5137624;27;20077;-73
2021/08/12 07:05:22;;;;;;;8.80;5.82;;;21.40;72.00;;;;;;5156205;27;20026;-74
2021/08/12 07:07:47;;;;;;;7.63;5.13;;;21.50;72.90;;;;;;5155734;27;20022;-78
2021/08/12 07:10:13;;;;;;;8.38;4.80;;;21.60;71.60;;;;;;5153465;27;20367;-73
2021/08/12 07:12:39;;;;;;;7.47;5.20;;;21.70;71.70;;;;;;5156106;27;20019;-73
2021/08/12 07:15:05;;;;;;;8.90;4.90;;;21.80;71.10;;;;;;5155899;27;20068;-73
2021/08/12 07:17:32;;;;;;;6.75;4.95;;;22.00;70.50;;;;;;5155957;27;20467;-73
2021/08/12 07:19:58;;;;;;;7.68;4.82;;;22.10;70.40;;;;;;5155948;27;20015;-73
2021/08/12 07:22:23;;;;;;;6.82;5.35;;;22.30;70.20;;;;;;5155963;27;20388;-73
2021/08/12 07:24:49;;;;;;;8.15;5.05;;;22.40;69.10;;;;;;5155766;27;20495;-73
2021/08/12 07:27:14;;;;;;;9.02;4.90;;;22.50;68.70;;;;;;5156234;27;20065;-73
2021/08/12 07:29:40;;;;;;;7.70;5.63;;;22.60;68.90;;;;;;5155659;27;20076;-73
2021/08/12 07:32:06;;;;;;;7.53;5.00;;;22.70;68.80;;;;;;5155306;27;20091;-73
2021/08/12 07:34:32;;;;;;;9.90;5.50;;;22.80;68.50;;;;;;5155735;27;20019;-73
2021/08/12 07:36:58;;;;;;;10.00;5.50;;;22.90;68.70;;;;;;5155347;27;20054;-79
2021/08/12 07:39:23;;;;;;;14.63;5.70;;;23.00;68.90;;;;;;5136802;27;20109;-78
2021/08/12 07:41:49;;;;;;;14.90;6.35;;;23.00;69.40;;;;;;5135941;27;20479;-78
2021/08/12 07:44:14;;;;;;;14.40;5.70;;;23.00;68.80;;;;;;5155490;27;20023;-79
2021/08/12 07:46:40;;;;;;;14.95;5.35;;;22.90;68.40;;;;;;5155866;27;20110;-79
2021/08/12 07:49:06;;;;;;;10.57;5.88;;;23.10;68.20;;;;;;5155520;27;20022;-79
2021/08/12 07:51:32;;;;;;;11.95;6.03;;;22.90;67.90;;;;;;5155813;27;20551;-78
2021/08/12 07:53:58;;;;;;;14.70;6.07;;;22.90;67.90;;;;;;5155468;27;20522;-78
2021/08/12 07:56:24;;;;;;;11.25;5.95;;;22.90;69.10;;;;;;5155041;27;20053;-78
2021/08/12 07:58:50;;;;;;;11.45;6.00;;;23.00;67.60;;;;;;5155370;27;20031;-78
2021/08/12 08:01:17;;;;;;;8.90;5.57;;;23.20;68.40;;;;;;5155248;27;20034;-77
2021/08/12 08:03:43;;;;;;;9.93;5.18;;;23.20;68.50;;;;;;5157037;27;20078;-77
2021/08/12 08:06:09;;;;;;;9.15;5.15;;;23.20;68.10;;;;;;5155419;27;20102;-78
2021/08/12 08:08:35;;;;;;;8.40;5.22;;;23.40;67.70;;;;;;5161439;27;20023;-78
2021/08/12 08:11:01;;;;;;;9.38;5.18;;;23.50;67.80;;;;;;5155994;27;20045;-77
2021/08/12 08:13:27;;;;;;;5.88;4.63;;;23.60;67.70;;;;;;5166735;27;20082;-77
2021/08/12 08:15:52;;;;;;;10.88;5.57;;;23.70;66.70;;;;;;5161059;27;20022;-78
2021/08/12 08:18:18;;;;;;;8.35;5.40;;;23.80;66.90;;;;;;5161193;27;20378;-79
2021/08/12 08:20:43;;;;;;;7.47;5.68;;;23.80;65.50;;;;;;5163928;27;20110;-79
2021/08/12 08:23:11;;;;;;;8.68;5.78;;;23.80;64.60;;;;;;5159471;27;20029;-77
2021/08/12 08:25:37;;;;;;;7.35;5.20;;;23.80;65.50;;;;;;5156354;27;20033;-77
2021/08/12 08:28:03;;;;;;;8.40;5.18;;;23.90;65.20;;;;;;5155535;27;20023;-77
2021/08/12 08:30:31;;;;;;;12.10;5.30;;;24.00;65.70;;;;;;5155338;27;20486;-79
2021/08/12 08:32:57;;;;;;;9.43;5.90;;;24.20;65.50;;;;;;5155364;27;20382;-77
2021/08/12 08:35:25;;;;;;;11.73;6.18;;;24.30;65.00;;;;;;5155752;27;20022;-77
2021/08/12 08:37:54;;;;;;;15.15;5.93;;;24.40;64.80;;;;;;5155292;27;20051;-77
2021/08/12 08:40:20;;;;;;;7.50;5.78;;;24.40;63.90;;;;;;5155654;27;20152;-78
2021/08/12 08:42:46;;;;;;;8.10;4.95;;;24.40;64.10;;;;;;5155445;27;20537;-78
2021/08/12 08:45:16;;;;;;;11.82;5.75;;;24.50;64.30;;;;;;5154959;27;20455;-78
2021/08/12 08:47:41;;;;;;;7.22;5.10;;;24.60;63.80;;;;;;5154666;27;20019;-78
2021/08/12 08:50:10;;;;;;;6.20;5.50;;;24.70;64.20;;;;;;5154437;27;20042;-78
2021/08/12 08:52:36;;;;;;;8.75;5.93;;;24.60;62.70;;;;;;5155814;27;20050;-78
2021/08/12 08:55:02;;;;;;;12.50;6.93;;;24.60;64.00;;;;;;5158855;27;20030;-78
2021/08/12 08:57:29;;;;;;;19.50;11.77;;;24.70;63.80;;;;;;5158665;27;20014;-78
2021/08/12 08:59:54;;;;;;;9.23;5.80;;;24.70;63.60;;;;;;5158949;27;20379;-78
2021/08/12 09:02:22;;;;;;;8.70;5.70;;;24.80;63.00;;;;;;5158695;27;20033;-78
2021/08/12 09:04:47;;;;;;;6.13;5.22;;;24.70;63.20;;;;;;5158357;27;20033;-78
2021/08/12 09:07:13;;;;;;;10.50;5.57;;;24.80;63.90;;;;;;5158528;27;20109;-78
2021/08/12 09:09:38;;;;;;;11.32;5.20;;;24.90;62.80;;;;;;5158499;27;20034;-78
2021/08/12 09:12:05;;;;;;;10.23;5.20;;;25.00;63.10;;;;;;5158217;27;20088;-78
2021/08/12 09:14:40;;;;;;;9.07;5.97;;;25.10;61.90;;;;;;5157076;27;20023;-79
2021/08/12 09:17:21;;;;;;;5.40;4.70;;;25.30;62.40;;;;;;5158121;27;20034;-79
2021/08/12 09:20:09;;;;;;;8.05;5.82;;;25.50;62.50;;;;;;5158531;27;20127;-78
2021/08/12 09:22:50;;;;;;;9.73;5.75;;;25.60;61.10;;;;;;5141153;27;20420;-79
2021/08/12 09:25:25;;;;;;;11.65;5.78;;;25.60;59.90;;;;;;5158709;27;20026;-78
2021/08/12 09:28:09;;;;;;;7.78;5.97;;;25.50;60.40;;;;;;5158473;27;20019;-78
2021/08/12 09:30:34;;;;;;;9.82;5.55;;;25.40;59.90;;;;;;5158253;27;20035;-78
2021/08/12 09:33:00;;;;;;;9.70;5.95;;;25.50;60.40;;;;;;5159077;27;20419;-78
2021/08/12 09:35:26;;;;;;;6.80;5.38;;;25.40;60.90;;;;;;5160747;27;20025;-78
2021/08/12 09:37:53;;;;;;;7.75;5.43;;;25.40;60.50;;;;;;5140942;27;20435;-78
2021/08/12 09:40:25;;;;;;;8.38;6.00;;;25.50;59.20;;;;;;5158280;27;20023;-79
2021/08/12 09:42:56;;;;;;;7.80;5.85;;;25.60;59.90;;;;;;5157917;27;20083;-78
2021/08/12 09:45:24;;;;;;;8.70;6.30;;;25.70;60.40;;;;;;5158030;27;20022;-76
2021/08/12 09:47:50;;;;;;;12.07;6.25;;;25.90;58.40;;;;;;5157882;27;20502;-78
2021/08/12 09:50:36;;;;;;;10.77;6.32;;;26.10;58.30;;;;;;5157934;27;20126;-78
2021/08/12 09:53:02;;;;;;;10.30;6.22;;;26.30;59.10;;;;;;5157435;27;20046;-79
2021/08/12 09:55:28;;;;;;;8.52;6.47;;;26.40;56.50;;;;;;5158121;27;20019;-78
2021/08/12 09:58:05;;;;;;;9.27;6.22;;;26.50;57.60;;;;;;5157569;27;20018;-78
2021/08/12 10:00:34;;;;;;;12.13;6.70;;;26.60;56.80;;;;;;5157228;27;20109;-78
2021/08/12 10:03:01;;;;;;;11.00;6.22;;;26.70;55.40;;;;;;5157243;27;20386;-78
2021/08/12 10:05:27;;;;;;;10.68;6.40;;;26.90;54.00;;;;;;5155324;27;20027;-76
2021/08/12 10:07:55;;;;;;;9.60;6.18;;;27.00;54.70;;;;;;5157002;27;20019;-77
2021/08/12 10:10:28;;;;;;;9.75;6.45;;;27.20;54.70;;;;;;5156803;27;20061;-77
2021/08/12 10:12:57;;;;;;;8.82;6.35;;;27.40;53.20;;;;;;5156854;27;20061;-77
2021/08/12 10:15:25;;;;;;;9.73;6.88;;;27.30;52.60;;;;;;5156737;27;20031;-77
2021/08/12 10:17:54;;;;;;;9.93;6.53;;;27.50;54.20;;;;;;5156772;27;20026;-77
2021/08/12 10:20:27;;;;;;;8.55;6.32;;;27.80;50.80;;;;;;5156998;27;20378;-76
2021/08/12 10:22:54;;;;;;;7.30;6.28;;;27.80;49.80;;;;;;5157032;27;20019;-76
2021/08/12 10:25:22;;;;;;;9.02;6.05;;;28.00;50.80;;;;;;5156853;27;20029;-76
2021/08/12 10:27:51;;;;;;;7.18;6.25;;;28.20;50.80;;;;;;5156559;27;20466;-76
2021/08/12 10:30:19;;;;;;;8.30;6.60;;;28.20;50.20;;;;;;5161099;27;20034;-76
2021/08/12 10:32:58;;;;;;;9.75;6.35;;;28.30;49.30;;;;;;5173358;27;20378;-79
2021/08/12 10:35:28;;;;;;;11.90;6.55;;;28.40;49.40;;;;;;5156984;27;20023;-78
2021/08/12 10:37:57;;;;;;;11.40;7.05;;;28.50;48.60;;;;;;5156410;27;20463;-78
2021/08/12 10:40:26;;;;;;;8.27;6.30;;;28.40;47.60;;;;;;5156503;27;20458;-78
2021/08/12 10:42:53;;;;;;;8.88;6.28;;;28.40;48.10;;;;;;5138023;27;20027;-77
2021/08/12 10:45:21;;;;;;;9.95;6.63;;;28.60;49.30;;;;;;5156473;27;20039;-78
2021/08/12 10:47:56;;;;;;;13.40;6.80;;;28.80;47.30;;;;;;5156540;27;20022;-78
2021/08/12 10:50:27;;;;;;;7.18;6.43;;;29.10;48.10;;;;;;5156386;27;20705;-77
2021/08/12 10:53:02;;;;;;;9.93;6.50;;;29.30;47.70;;;;;;5156556;27;20035;-78
2021/08/12 10:55:28;;;;;;;10.43;6.28;;;29.50;46.40;;;;;;5156708;27;20211;-78
2021/08/12 10:58:18;;;;;;;8.63;6.00;;;29.70;45.30;;;;;;5156628;27;20075;-79
2021/08/12 11:00:52;;;;;;;10.05;6.50;;;29.80;44.70;;;;;;5156606;27;20019;-78
2021/08/12 11:03:36;;;;;;;11.10;6.13;;;29.90;44.10;;;;;;5156702;27;20027;-78
2021/08/12 11:06:12;;;;;;;7.60;5.82;;;29.90;43.40;;;;;;5156334;27;20015;-78
2021/08/12 11:08:51;;;;;;;9.23;6.75;;;29.90;42.70;;;;;;5156355;27;20071;-79
2021/08/12 11:11:25;;;;;;;9.60;6.28;;;30.00;43.40;;;;;;5156290;27;20542;-76
2021/08/12 11:13:51;;;;;;;9.40;6.22;;;30.10;42.40;;;;;;5155781;27;20064;-74
2021/08/12 11:16:18;;;;;;;7.18;6.32;;;30.00;42.30;;;;;;5154947;27;20098;-74
2021/08/12 11:18:59;;;;;;;9.73;6.05;;;30.00;41.50;;;;;;5156209;27;20026;-75
2021/08/12 11:21:31;;;;;;;10.02;6.68;;;30.20;40.90;;;;;;5156268;27;20050;-74
2021/08/12 11:23:57;;;;;;;7.82;6.25;;;30.20;41.50;;;;;;5161899;27;20027;-74
2021/08/12 11:26:23;;;;;;;8.63;6.57;;;30.40;42.20;;;;;;5160658;27;20046;-75
2021/08/12 11:28:54;;;;;;;7.55;6.75;;;30.60;40.50;;;;;;5155816;27;20303;-75
2021/08/12 11:31:25;;;;;;;9.38;5.85;;;30.80;39.20;;;;;;5155260;27;20031;-75
2021/08/12 11:33:52;;;;;;;6.50;5.78;;;30.90;38.70;;;;;;5155644;27;20089;-74
2021/08/12 11:36:23;;;;;;;8.93;6.05;;;31.00;38.60;;;;;;5137043;27;20241;-75
2021/08/12 11:39:16;;;;;;;8.70;6.28;;;31.20;39.00;;;;;;5155356;27;20015;-74
2021/08/12 11:41:43;;;;;;;7.18;6.32;;;31.30;38.40;;;;;;5150069;27;20038;-73
2021/08/12 11:44:14;;;;;;;7.55;5.70;;;31.50;36.90;;;;;;5155145;27;20018;-73
2021/08/12 11:46:41;;;;;;;8.27;6.38;;;31.50;36.80;;;;;;5155092;27;20027;-74
2021/08/12 11:49:11;;;;;;;8.30;5.88;;;31.60;37.00;;;;;;5154727;27;20065;-73
2021/08/12 11:51:37;;;;;;;8.32;6.43;;;31.70;37.20;;;;;;5154879;27;20094;-74
2021/08/12 11:54:03;;;;;;;7.68;6.22;;;31.80;36.90;;;;;;5155273;27;20867;-74
2021/08/12 11:56:32;;;;;;;8.25;5.68;;;31.60;35.70;;;;;;5155142;27;20027;-74
2021/08/12 11:58:59;;;;;;;6.95;5.60;;;31.50;36.00;;;;;;5155168;27;20097;-74
2021/08/12 12:01:33;;;;;;;6.57;5.80;;;31.70;36.00;;;;;;5155055;27;20110;-74
2021/08/12 12:04:01;;;;;;;7.65;5.72;;;31.90;35.80;;;;;;5155193;27;20019;-74
2021/08/12 12:06:37;;;;;;;7.60;5.57;;;32.00;36.10;;;;;;5154857;27;20019;-74
2021/08/12 12:09:18;;;;;;;9.65;6.15;;;32.20;34.20;;;;;;5155112;27;20076;-73
2021/08/12 12:12:04;;;;;;;8.02;6.35;;;32.30;33.60;;;;;;5154514;27;20482;-74
2021/08/12 12:14:35;;;;;;;7.50;6.45;;;32.40;34.30;;;;;;5154814;27;20029;-73
2021/08/12 12:17:11;;;;;;;9.60;6.65;;;32.60;33.20;;;;;;5154942;27;20027;-74
2021/08/12 12:19:57;;;;;;;7.85;6.20;;;32.70;33.10;;;;;;5154385;27;20072;-75
2021/08/12 12:22:23;;;;;;;7.85;5.45;;;32.80;31.30;;;;;;5154984;27;20033;-76
2021/08/12 12:24:49;;;;;;;7.53;5.97;;;32.80;31.30;;;;;;5156228;27;20094;-76
2021/08/12 12:27:20;;;;;;;6.90;5.57;;;32.80;31.10;;;;;;5155765;27;20029;-74
2021/08/12 12:29:47;;;;;;;7.95;5.60;;;32.80;31.30;;;;;;5154702;27;20027;-75
2021/08/12 12:32:14;;;;;;;7.88;5.40;;;32.90;31.40;;;;;;5154758;27;20530;-74
2021/08/12 12:34:50;;;;;;;6.32;5.40;;;32.80;30.20;;;;;;5154662;27;20099;-74
2021/08/12 12:37:16;;;;;;;9.15;5.20;;;33.00;30.40;;;;;;5154287;27;20019;-74
2021/08/12 12:39:42;;;;;;;8.93;5.60;;;32.90;27.70;;;;;;5154778;27;20019;-74
2021/08/12 12:42:08;;;;;;;8.85;5.38;;;33.00;27.80;;;;;;5154548;27;20166;-75
2021/08/12 12:44:34;;;;;;;6.45;5.00;;;33.20;27.40;;;;;;5154299;27;20015;-74
2021/08/12 12:46:59;;;;;;;7.15;5.10;;;33.40;28.10;;;;;;5153809;27;20025;-74